8分钟前
罗盘
风向 的 风向 的 风向 到 风向 200° Aero Club Salland 9/27
风: 9 千吨, 3 beaufort
0 0 0.17778093859221 500 0.32299085377319 1.500 0.47075341907445 3.000 0.62138884920159 5.000 0.8022287624727 8.000 0.90566318494517 10.000
SCT 2.700 ft
METAR EHLE 261725Z AUTO 20009KT 180V240 9999 SCT027 13/10 Q1019 NOSIG

METAR定义 | 嵌入

24小时趋势

航班类别VFRLIFR
温度14 °C10 °C
风速14 千吨0 千吨
能见度10 公里+0 米

更多历史数据

下载我们的安卓应用程序

从你的主屏幕上轻松地访问你的航空天气。
只需一次付费,您就可以获得无广告的体验。

您会帮助我们保持Metar-Taf.com正常运行吗?
您的贡献有助于网站的进一步开发并支付费用。

没有更多广告

您是捐款5美元还是更多?然后,我们将永远不会再向您展示广告,这是我们永恒的感谢!
捐赠前先登录

METAR Aero Club Salland

Aero Club Salland是Lemelerveld,荷兰中的格利德菲尔德。 机场有{a,plural,=1{一条跑道} other{#跑道}}: 9/27

Aero Club Salland最近未发布观察结果。相反,我们向您显示55 km的报告Lelystad Airport。 该报告是针对2021年10月26日 19:25, 当地时间进行的。

机场观察

风来自南南西 (200°)方向,速度为9 千吨。 风向在南 (180°)和西南西 (240°)之间变化。

可见度为10 公里 或者更多。

有疏云,零星散落的云朵在2.700 ft的高度。 没有观察到天花板。

温度和风寒是13 °C。 露点为10 °C,相对湿度为82%。 海平面上的气压为1019 压力 (QNH)。

白天

今天,太阳从08:20升起,在18:16降落。 这适用于Aero Club Salland,世界夏令时可能有所不同。 当地时间与世界标准时间之间的时差为+2 小时。 夏令时目前正在进行中。

公司介绍

在这个机场,你可以找到滑翔机飞行俱乐部。 本场上唯一已知的公司是Vliegles.nl。

体会

在这个机场有飞行课程。 你可以在没有任何经验的情况下预订飞行课程。 在Aero Club Salland预订最多的飞行课程类型是Glider flying day course。 这些课程的价格从€ 149开始。 在这里阅读更多关于Glider flying day course的信息。你也可以在这个网站上进行预订。

您是否要在网站上Aero Club Salland飞行的天气? 阅读更多   自由!